EXS8GN LCPH-EGBB
Flight info
| Callsign | EXS8GN |
|---|---|
| Flight time | 4h 43m |
| Altitude | 34000 |
| Route | GENOS DCT PEDER DCT LUTIG DCT EXELA UN127 RIKSO DCT LMO DCT EVIVI DCT OKANA DCT RAVAK DCT XENIT DCT BGD DCT NIVIS DCT LULIK DCT BABIT DCT SOGMO DCT SASAL DCT OBFEZ DCT RENKA DCT INBED DCT BOMBI DCT ADKUV DCT LENDO DCT SOGRI DCT DENUT L610 HEMEL |
| Aircraft | B738/M-SDE2E3FGHIRWXY/LB1 |
Departure
| Time | 2026-04-29 14:41 |
|---|---|
| Airport | Paphos International Airport (LCPH) |
Arrival
| Time | 2026-04-29 19:24 |
|---|---|
| Airport | Birmingham Airport (EGBB) |
| Time | Latitude | Longitude | Altitude | Speed | Heading |
|---|---|---|---|---|---|
| 2026-04-29 14:25 | 34.71406 | 32.48919 | 45 ft | 0 kts | 155° |
| 2026-04-29 14:32 | 34.71408 | 32.48918 | 45 ft | 2 kts | 155° |
| 2026-04-29 14:32 | 34.71432 | 32.48908 | 42 ft | 4 kts | 177° |
| 2026-04-29 14:32 | 34.71457 | 32.48914 | 40 ft | 4 kts | 216° |
| 2026-04-29 14:32 | 34.71474 | 32.48937 | 41 ft | 4 kts | 248° |
| 2026-04-29 14:33 | 34.71481 | 32.48968 | 44 ft | 4 kts | 264° |
| 2026-04-29 14:33 | 34.71482 | 32.49001 | 45 ft | 4 kts | 277° |
| 2026-04-29 14:33 | 34.71478 | 32.49023 | 43 ft | 0 kts | 290° |
| 2026-04-29 14:37 | 34.71479 | 32.49020 | 43 ft | 1 kts | 290° |
| 2026-04-29 14:37 | 34.71486 | 32.48998 | 40 ft | 5 kts | 290° |
| 2026-04-29 14:37 | 34.71516 | 32.48975 | 45 ft | 7 kts | 354° |
| 2026-04-29 14:37 | 34.71568 | 32.48990 | 45 ft | 8 kts | 17° |
| 2026-04-29 14:38 | 34.71623 | 32.49014 | 47 ft | 8 kts | 27° |
| 2026-04-29 14:38 | 34.71632 | 32.49085 | 47 ft | 10 kts | 104° |
| 2026-04-29 14:38 | 34.71608 | 32.49169 | 46 ft | 12 kts | 110° |
| 2026-04-29 14:38 | 34.71577 | 32.49273 | 45 ft | 16 kts | 110° |
| 2026-04-29 14:39 | 34.71528 | 32.49438 | 43 ft | 25 kts | 108° |
| 2026-04-29 14:39 | 34.71464 | 32.49646 | 41 ft | 26 kts | 116° |
| 2026-04-29 14:39 | 34.71389 | 32.49778 | 43 ft | 18 kts | 142° |
| 2026-04-29 14:39 | 34.71398 | 32.49840 | 43 ft | 8 kts | 329° |
| 2026-04-29 14:40 | 34.71422 | 32.49781 | 43 ft | 8 kts | 291° |
| 2026-04-29 14:40 | 34.71454 | 32.49676 | 40 ft | 32 kts | 290° |
| 2026-04-29 14:40 | 34.71614 | 32.49153 | 46 ft | 98 kts | 289° |
| 2026-04-29 14:40 | 34.71919 | 32.48140 | 45 ft | 154 kts | 289° |
| 2026-04-29 14:41 | 34.72330 | 32.46850 | 483 ft | 169 kts | 291° |
| 2026-04-29 14:41 | 34.72786 | 32.45439 | 964 ft | 185 kts | 283° |
| 2026-04-29 14:41 | 34.72650 | 32.43959 | 1786 ft | 176 kts | 250° |
| 2026-04-29 14:41 | 34.72258 | 32.42536 | 2335 ft | 185 kts | 252° |
| 2026-04-29 14:42 | 34.71840 | 32.40969 | 2599 ft | 206 kts | 252° |
| 2026-04-29 14:42 | 34.71378 | 32.39244 | 2809 ft | 223 kts | 249° |
| 2026-04-29 14:42 | 34.71021 | 32.37338 | 3045 ft | 238 kts | 265° |
| 2026-04-29 14:42 | 34.70920 | 32.35291 | 3402 ft | 249 kts | 265° |
| 2026-04-29 14:43 | 34.70810 | 32.33115 | 3662 ft | 265 kts | 265° |
| 2026-04-29 14:43 | 34.70684 | 32.30861 | 4303 ft | 268 kts | 265° |
| 2026-04-29 14:43 | 34.70549 | 32.28586 | 5045 ft | 271 kts | 264° |
| 2026-04-29 14:43 | 34.70405 | 32.26287 | 5676 ft | 276 kts | 265° |
| 2026-04-29 14:44 | 34.70254 | 32.23957 | 6368 ft | 278 kts | 264° |
| 2026-04-29 14:44 | 34.70097 | 32.21597 | 6999 ft | 281 kts | 265° |
| 2026-04-29 14:44 | 34.69936 | 32.19222 | 7686 ft | 282 kts | 265° |
| 2026-04-29 14:44 | 34.69773 | 32.16837 | 8343 ft | 285 kts | 265° |
| 2026-04-29 14:45 | 34.69606 | 32.14417 | 8974 ft | 289 kts | 265° |
| 2026-04-29 14:45 | 34.69436 | 32.11983 | 9658 ft | 290 kts | 266° |
| 2026-04-29 14:45 | 34.69265 | 32.09521 | 10232 ft | 295 kts | 266° |
| 2026-04-29 14:45 | 34.69085 | 32.06951 | 10412 ft | 315 kts | 266° |
| 2026-04-29 14:46 | 34.68894 | 32.04214 | 10571 ft | 334 kts | 266° |
| 2026-04-29 14:46 | 34.68693 | 32.01368 | 10779 ft | 350 kts | 266° |
| 2026-04-29 14:46 | 34.68483 | 31.98395 | 11246 ft | 356 kts | 267° |
| 2026-04-29 14:46 | 34.68568 | 31.95391 | 11869 ft | 356 kts | 282° |
| 2026-04-29 14:47 | 34.69319 | 31.92535 | 12548 ft | 355 kts | 296° |
| 2026-04-29 14:47 | 34.70486 | 31.89895 | 13202 ft | 357 kts | 300° |
| 2026-04-29 14:47 | 34.71695 | 31.87241 | 13797 ft | 361 kts | 300° |
| 2026-04-29 14:47 | 34.72504 | 31.85462 | 14161 ft | 363 kts | 300° |
| 2026-04-29 14:48 | 34.74142 | 31.81843 | 14944 ft | 367 kts | 299° |
| 2026-04-29 14:48 | 34.75373 | 31.79102 | 15556 ft | 370 kts | 299° |
| 2026-04-29 14:48 | 34.76606 | 31.76347 | 16150 ft | 373 kts | 299° |
| 2026-04-29 14:48 | 34.77847 | 31.73563 | 16720 ft | 376 kts | 299° |
| 2026-04-29 14:49 | 34.79101 | 31.70743 | 17310 ft | 379 kts | 299° |
| 2026-04-29 14:49 | 34.80342 | 31.67945 | 17868 ft | 382 kts | 299° |
| 2026-04-29 14:49 | 34.81612 | 31.65080 | 18423 ft | 385 kts | 299° |
| 2026-04-29 14:49 | 34.82887 | 31.62200 | 18918 ft | 388 kts | 299° |
| 2026-04-29 14:50 | 34.84172 | 31.59293 | 19431 ft | 390 kts | 299° |
| 2026-04-29 14:50 | 34.85462 | 31.56372 | 19932 ft | 393 kts | 298° |
| 2026-04-29 14:50 | 34.86760 | 31.53431 | 20429 ft | 395 kts | 298° |
| 2026-04-29 14:50 | 34.88064 | 31.50475 | 20912 ft | 398 kts | 298° |
| 2026-04-29 14:51 | 34.89375 | 31.47500 | 21387 ft | 400 kts | 298° |
| 2026-04-29 14:51 | 34.90696 | 31.44500 | 21852 ft | 403 kts | 298° |
| 2026-04-29 14:51 | 34.92027 | 31.41473 | 22313 ft | 405 kts | 298° |
| 2026-04-29 14:51 | 34.93360 | 31.38440 | 22768 ft | 408 kts | 298° |
| 2026-04-29 14:52 | 34.94704 | 31.35380 | 23220 ft | 410 kts | 298° |
| 2026-04-29 14:52 | 34.96051 | 31.32309 | 23651 ft | 413 kts | 298° |
| 2026-04-29 14:52 | 34.97411 | 31.29205 | 24013 ft | 415 kts | 298° |
| 2026-04-29 14:52 | 34.98775 | 31.26091 | 24388 ft | 417 kts | 298° |
| 2026-04-29 14:53 | 35.00125 | 31.23005 | 24754 ft | 419 kts | 298° |
| 2026-04-29 14:53 | 35.01518 | 31.19819 | 25126 ft | 420 kts | 298° |
| 2026-04-29 14:53 | 35.02875 | 31.16710 | 25469 ft | 422 kts | 297° |
| 2026-04-29 14:53 | 35.04278 | 31.13496 | 25815 ft | 425 kts | 297° |
| 2026-04-29 14:54 | 35.05648 | 31.10352 | 26145 ft | 427 kts | 297° |
| 2026-04-29 14:54 | 35.07046 | 31.07142 | 26471 ft | 429 kts | 297° |
| 2026-04-29 14:54 | 35.08445 | 31.03926 | 26799 ft | 431 kts | 297° |
| 2026-04-29 14:54 | 35.09851 | 31.00692 | 27119 ft | 433 kts | 297° |
| 2026-04-29 14:55 | 35.11268 | 30.97427 | 27448 ft | 434 kts | 297° |
| 2026-04-29 14:55 | 35.12687 | 30.94157 | 27772 ft | 436 kts | 297° |
| 2026-04-29 14:55 | 35.14114 | 30.90865 | 28038 ft | 439 kts | 297° |
| 2026-04-29 14:55 | 35.15541 | 30.87567 | 28328 ft | 441 kts | 297° |
| 2026-04-29 14:56 | 35.16977 | 30.84249 | 28699 ft | 440 kts | 297° |
| 2026-04-29 14:56 | 35.18404 | 30.80946 | 29166 ft | 438 kts | 297° |
| 2026-04-29 14:56 | 35.19823 | 30.77660 | 29635 ft | 436 kts | 297° |
| 2026-04-29 14:56 | 35.21238 | 30.74380 | 30047 ft | 435 kts | 297° |
| 2026-04-29 14:57 | 35.22631 | 30.71146 | 30345 ft | 435 kts | 297° |
| 2026-04-29 14:57 | 35.24055 | 30.67839 | 30702 ft | 433 kts | 297° |
| 2026-04-29 14:57 | 35.25437 | 30.64625 | 31096 ft | 431 kts | 297° |
| 2026-04-29 14:57 | 35.26827 | 30.61390 | 31468 ft | 428 kts | 297° |
| 2026-04-29 14:58 | 35.28212 | 30.58162 | 31801 ft | 427 kts | 297° |
| 2026-04-29 14:58 | 35.29591 | 30.54946 | 32132 ft | 426 kts | 297° |
| 2026-04-29 14:58 | 35.30964 | 30.51740 | 32464 ft | 425 kts | 297° |
| 2026-04-29 14:58 | 35.32335 | 30.48537 | 32811 ft | 423 kts | 297° |
| 2026-04-29 14:59 | 35.33696 | 30.45355 | 33134 ft | 421 kts | 297° |
| 2026-04-29 14:59 | 35.35050 | 30.42183 | 33456 ft | 420 kts | 297° |
| 2026-04-29 14:59 | 35.36403 | 30.39013 | 33767 ft | 419 kts | 297° |
| 2026-04-29 14:59 | 35.37750 | 30.35853 | 34011 ft | 419 kts | 297° |
| 2026-04-29 15:00 | 35.39103 | 30.32677 | 33973 ft | 422 kts | 297° |
| 2026-04-29 15:00 | 35.41362 | 30.27365 | 33979 ft | 421 kts | 297° |
| 2026-04-29 15:01 | 35.44044 | 30.21051 | 33975 ft | 415 kts | 296° |
| 2026-04-29 15:01 | 35.46709 | 30.14762 | 33985 ft | 415 kts | 296° |
| 2026-04-29 15:02 | 35.49366 | 30.08481 | 33985 ft | 414 kts | 296° |
| 2026-04-29 15:02 | 35.52067 | 30.02234 | 33974 ft | 415 kts | 302° |
| 2026-04-29 15:03 | 35.55812 | 29.96833 | 33977 ft | 418 kts | 317° |
| 2026-04-29 15:03 | 35.60211 | 29.92239 | 33981 ft | 419 kts | 318° |
| 2026-04-29 15:04 | 35.64663 | 29.87606 | 33987 ft | 419 kts | 317° |
| 2026-04-29 15:04 | 35.69112 | 29.82922 | 33982 ft | 421 kts | 317° |
| 2026-04-29 15:05 | 35.73550 | 29.78220 | 33981 ft | 421 kts | 317° |
| 2026-04-29 15:05 | 35.77994 | 29.73500 | 33979 ft | 422 kts | 317° |
| 2026-04-29 15:06 | 35.82442 | 29.68769 | 33981 ft | 423 kts | 317° |
| 2026-04-29 15:06 | 35.86861 | 29.64062 | 33981 ft | 423 kts | 317° |
| 2026-04-29 15:07 | 35.91317 | 29.59308 | 33980 ft | 423 kts | 317° |
| 2026-04-29 15:07 | 35.95763 | 29.54561 | 33981 ft | 423 kts | 317° |
| 2026-04-29 15:08 | 36.00301 | 29.49921 | 33983 ft | 423 kts | 319° |
| 2026-04-29 15:08 | 36.04872 | 29.45335 | 33983 ft | 423 kts | 319° |
| 2026-04-29 15:09 | 36.09425 | 29.40732 | 33984 ft | 423 kts | 319° |
| 2026-04-29 15:09 | 36.13967 | 29.36115 | 33988 ft | 422 kts | 319° |
| 2026-04-29 15:10 | 36.18507 | 29.31492 | 33986 ft | 422 kts | 319° |
| 2026-04-29 15:10 | 36.22998 | 29.26808 | 33990 ft | 422 kts | 318° |
| 2026-04-29 15:11 | 36.27438 | 29.22131 | 33995 ft | 422 kts | 318° |
| 2026-04-29 15:11 | 36.31906 | 29.17436 | 33991 ft | 422 kts | 318° |
| 2026-04-29 15:12 | 36.36386 | 29.12725 | 33992 ft | 422 kts | 318° |
| 2026-04-29 15:12 | 36.40858 | 29.08013 | 33992 ft | 422 kts | 318° |
| 2026-04-29 15:13 | 36.45334 | 29.03289 | 33992 ft | 422 kts | 318° |
| 2026-04-29 15:13 | 36.49808 | 28.98559 | 33995 ft | 422 kts | 318° |
| 2026-04-29 15:14 | 36.54274 | 28.93830 | 33997 ft | 422 kts | 318° |
| 2026-04-29 15:14 | 36.58750 | 28.89083 | 33994 ft | 422 kts | 318° |
| 2026-04-29 15:15 | 36.63218 | 28.84336 | 33996 ft | 423 kts | 318° |
| 2026-04-29 15:15 | 36.67693 | 28.79576 | 33996 ft | 423 kts | 318° |
| 2026-04-29 15:16 | 36.72145 | 28.74846 | 33995 ft | 423 kts | 318° |
| 2026-04-29 15:16 | 36.76638 | 28.70089 | 33997 ft | 423 kts | 318° |
| 2026-04-29 15:17 | 36.81128 | 28.65327 | 33997 ft | 424 kts | 318° |
| 2026-04-29 15:17 | 36.85612 | 28.60558 | 33985 ft | 423 kts | 318° |
| 2026-04-29 15:18 | 36.90083 | 28.55795 | 33984 ft | 422 kts | 318° |
| 2026-04-29 15:18 | 36.94551 | 28.51029 | 33986 ft | 422 kts | 318° |
| 2026-04-29 15:19 | 36.99015 | 28.46258 | 33989 ft | 422 kts | 318° |
| 2026-04-29 15:19 | 37.03484 | 28.41473 | 33983 ft | 423 kts | 318° |
| 2026-04-29 15:20 | 37.07948 | 28.36688 | 33984 ft | 423 kts | 318° |
| 2026-04-29 15:20 | 37.12405 | 28.31863 | 33983 ft | 423 kts | 318° |
| 2026-04-29 15:21 | 37.16848 | 28.27041 | 33979 ft | 423 kts | 318° |
| 2026-04-29 15:21 | 37.21310 | 28.22237 | 33983 ft | 422 kts | 318° |
| 2026-04-29 15:22 | 37.25734 | 28.17468 | 33967 ft | 422 kts | 318° |
| 2026-04-29 15:22 | 37.30184 | 28.12659 | 33973 ft | 422 kts | 318° |
| 2026-04-29 15:23 | 37.34623 | 28.07832 | 33970 ft | 421 kts | 317° |
| 2026-04-29 15:23 | 37.39042 | 28.03004 | 33973 ft | 421 kts | 317° |
| 2026-04-29 15:24 | 37.43458 | 27.98168 | 33976 ft | 421 kts | 317° |
| 2026-04-29 15:24 | 37.47877 | 27.93332 | 33977 ft | 421 kts | 317° |
| 2026-04-29 15:25 | 37.52293 | 27.88489 | 33973 ft | 421 kts | 317° |
| 2026-04-29 15:25 | 37.56704 | 27.83643 | 33969 ft | 421 kts | 317° |
| 2026-04-29 15:26 | 37.61108 | 27.78796 | 33972 ft | 420 kts | 317° |
| 2026-04-29 15:26 | 37.65512 | 27.73941 | 33969 ft | 420 kts | 317° |
| 2026-04-29 15:27 | 37.69904 | 27.69092 | 33969 ft | 419 kts | 317° |
| 2026-04-29 15:27 | 37.74261 | 27.64273 | 33986 ft | 419 kts | 317° |
| 2026-04-29 15:28 | 37.78649 | 27.59410 | 33975 ft | 419 kts | 317° |
| 2026-04-29 15:28 | 37.83022 | 27.54558 | 33986 ft | 418 kts | 317° |
| 2026-04-29 15:29 | 37.87394 | 27.49700 | 33985 ft | 418 kts | 317° |
| 2026-04-29 15:30 | 37.96155 | 27.40061 | 33988 ft | 417 kts | 317° |
| 2026-04-29 15:30 | 38.00540 | 27.35252 | 33990 ft | 417 kts | 317° |
| 2026-04-29 15:31 | 38.04920 | 27.30433 | 34000 ft | 417 kts | 317° |
| 2026-04-29 15:31 | 38.09302 | 27.25600 | 33995 ft | 418 kts | 317° |
| 2026-04-29 15:32 | 38.13655 | 27.20792 | 34004 ft | 418 kts | 317° |
| 2026-04-29 15:32 | 38.18046 | 27.15933 | 34024 ft | 417 kts | 317° |
| 2026-04-29 15:33 | 38.22418 | 27.11088 | 34018 ft | 417 kts | 317° |
| 2026-04-29 15:33 | 38.26788 | 27.06237 | 34023 ft | 416 kts | 317° |
| 2026-04-29 15:34 | 38.31150 | 27.01387 | 34031 ft | 415 kts | 317° |
| 2026-04-29 15:34 | 38.35508 | 26.96564 | 34029 ft | 415 kts | 318° |
| 2026-04-29 15:35 | 38.39890 | 26.91734 | 34018 ft | 415 kts | 318° |
| 2026-04-29 15:35 | 38.44253 | 26.86916 | 34031 ft | 414 kts | 317° |
| 2026-04-29 15:36 | 38.48585 | 26.82119 | 34038 ft | 414 kts | 318° |
| 2026-04-29 15:36 | 38.52928 | 26.77301 | 34037 ft | 414 kts | 317° |
| 2026-04-29 15:37 | 38.57268 | 26.72477 | 34036 ft | 413 kts | 317° |
| 2026-04-29 15:37 | 38.61606 | 26.67647 | 34051 ft | 413 kts | 317° |
| 2026-04-29 15:38 | 38.65939 | 26.62815 | 34052 ft | 413 kts | 317° |
| 2026-04-29 15:38 | 38.70278 | 26.57969 | 34030 ft | 413 kts | 317° |
| 2026-04-29 15:39 | 38.74579 | 26.53157 | 34044 ft | 413 kts | 317° |
| 2026-04-29 15:39 | 38.78911 | 26.48301 | 34038 ft | 413 kts | 317° |
| 2026-04-29 15:40 | 38.83246 | 26.43436 | 34047 ft | 414 kts | 317° |
| 2026-04-29 15:40 | 38.87603 | 26.38612 | 34045 ft | 414 kts | 318° |
| 2026-04-29 15:41 | 38.91979 | 26.33799 | 34046 ft | 414 kts | 318° |
| 2026-04-29 15:41 | 38.96352 | 26.28978 | 34038 ft | 414 kts | 318° |
| 2026-04-29 15:42 | 39.00710 | 26.24159 | 34058 ft | 413 kts | 318° |
| 2026-04-29 15:42 | 39.05067 | 26.19329 | 34044 ft | 413 kts | 318° |
| 2026-04-29 15:43 | 39.09416 | 26.14500 | 34049 ft | 412 kts | 318° |
| 2026-04-29 15:43 | 39.13721 | 26.09711 | 34038 ft | 411 kts | 318° |
| 2026-04-29 15:44 | 39.18043 | 26.04897 | 34067 ft | 410 kts | 317° |
| 2026-04-29 15:44 | 39.22350 | 26.00089 | 34044 ft | 409 kts | 317° |
| 2026-04-29 15:45 | 39.26660 | 25.95270 | 34063 ft | 412 kts | 317° |
| 2026-04-29 15:45 | 39.30334 | 25.91155 | 34062 ft | 420 kts | 317° |
| 2026-04-29 15:46 | 39.34757 | 25.86195 | 34052 ft | 422 kts | 317° |
| 2026-04-29 15:46 | 39.39188 | 25.81218 | 34061 ft | 422 kts | 317° |
| 2026-04-29 15:47 | 39.43619 | 25.76232 | 34056 ft | 422 kts | 317° |
| 2026-04-29 15:47 | 39.48014 | 25.71278 | 34057 ft | 421 kts | 317° |
| 2026-04-29 15:48 | 39.52419 | 25.66303 | 34061 ft | 420 kts | 317° |
| 2026-04-29 15:48 | 39.56817 | 25.61327 | 34063 ft | 418 kts | 317° |
| 2026-04-29 15:49 | 39.61192 | 25.56370 | 34061 ft | 417 kts | 317° |
| 2026-04-29 15:49 | 39.65549 | 25.51424 | 34062 ft | 415 kts | 317° |
| 2026-04-29 15:50 | 39.69886 | 25.46490 | 34060 ft | 414 kts | 317° |
| 2026-04-29 15:50 | 39.74215 | 25.41559 | 34070 ft | 413 kts | 317° |
| 2026-04-29 15:51 | 39.78539 | 25.36625 | 34058 ft | 413 kts | 317° |
| 2026-04-29 15:51 | 39.82833 | 25.31715 | 34070 ft | 412 kts | 317° |
| 2026-04-29 15:52 | 39.87142 | 25.26781 | 34077 ft | 413 kts | 317° |
| 2026-04-29 15:52 | 39.91450 | 25.21839 | 34076 ft | 413 kts | 317° |
| 2026-04-29 15:53 | 39.95763 | 25.16883 | 34076 ft | 413 kts | 317° |
| 2026-04-29 15:53 | 40.00071 | 25.11923 | 34074 ft | 414 kts | 317° |
| 2026-04-29 15:54 | 40.04386 | 25.06947 | 34072 ft | 414 kts | 317° |
| 2026-04-29 15:54 | 40.08700 | 25.01964 | 34071 ft | 414 kts | 316° |
| 2026-04-29 15:55 | 40.13017 | 24.96967 | 34068 ft | 414 kts | 317° |
| 2026-04-29 15:55 | 40.17332 | 24.91964 | 34068 ft | 415 kts | 317° |
| 2026-04-29 15:56 | 40.21652 | 24.86947 | 34071 ft | 415 kts | 316° |
| 2026-04-29 15:56 | 40.25968 | 24.81926 | 34067 ft | 415 kts | 316° |
| 2026-04-29 15:57 | 40.30260 | 24.76924 | 34080 ft | 415 kts | 316° |
| 2026-04-29 15:57 | 40.34577 | 24.71883 | 34069 ft | 415 kts | 316° |
| 2026-04-29 15:58 | 40.38879 | 24.66851 | 34068 ft | 414 kts | 316° |
| 2026-04-29 15:58 | 40.43175 | 24.61818 | 34067 ft | 413 kts | 316° |
| 2026-04-29 15:59 | 40.47455 | 24.56793 | 34067 ft | 412 kts | 316° |
| 2026-04-29 15:59 | 40.51731 | 24.51764 | 34068 ft | 412 kts | 316° |
| 2026-04-29 16:00 | 40.55993 | 24.46744 | 34086 ft | 411 kts | 316° |
| 2026-04-29 16:00 | 40.60247 | 24.41724 | 34069 ft | 410 kts | 316° |
| 2026-04-29 16:01 | 40.64491 | 24.36706 | 34062 ft | 409 kts | 316° |
| 2026-04-29 16:01 | 40.68697 | 24.31724 | 34064 ft | 408 kts | 316° |
| 2026-04-29 16:02 | 40.72916 | 24.26719 | 34068 ft | 408 kts | 316° |
| 2026-04-29 16:02 | 40.77128 | 24.21712 | 34066 ft | 407 kts | 316° |
| 2026-04-29 16:03 | 40.81339 | 24.16698 | 34070 ft | 407 kts | 316° |
| 2026-04-29 16:03 | 40.85548 | 24.11678 | 34079 ft | 408 kts | 316° |
| 2026-04-29 16:04 | 40.89755 | 24.06651 | 34041 ft | 406 kts | 316° |
| 2026-04-29 16:04 | 40.93927 | 24.01656 | 34073 ft | 407 kts | 316° |
| 2026-04-29 16:05 | 40.98130 | 23.96614 | 34064 ft | 408 kts | 316° |
| 2026-04-29 16:05 | 41.02341 | 23.91555 | 34050 ft | 408 kts | 315° |
| 2026-04-29 16:06 | 41.06549 | 23.86491 | 34060 ft | 408 kts | 315° |
| 2026-04-29 16:06 | 41.10727 | 23.81454 | 34065 ft | 408 kts | 315° |
| 2026-04-29 16:07 | 41.14928 | 23.76380 | 34071 ft | 408 kts | 315° |
| 2026-04-29 16:07 | 41.19122 | 23.71304 | 34069 ft | 408 kts | 315° |
| 2026-04-29 16:08 | 41.23323 | 23.66210 | 34054 ft | 408 kts | 315° |
| 2026-04-29 16:08 | 41.27515 | 23.61118 | 34033 ft | 408 kts | 315° |
| 2026-04-29 16:09 | 41.31700 | 23.56025 | 34044 ft | 408 kts | 315° |
| 2026-04-29 16:09 | 41.35891 | 23.50916 | 34058 ft | 408 kts | 315° |
| 2026-04-29 16:10 | 41.40142 | 23.45965 | 34045 ft | 410 kts | 321° |
| 2026-04-29 16:10 | 41.45169 | 23.42268 | 34041 ft | 414 kts | 330° |
| 2026-04-29 16:11 | 41.50326 | 23.38969 | 34052 ft | 413 kts | 330° |
| 2026-04-29 16:11 | 41.55499 | 23.35628 | 34044 ft | 412 kts | 330° |
| 2026-04-29 16:12 | 41.60656 | 23.32267 | 34056 ft | 411 kts | 330° |
| 2026-04-29 16:12 | 41.65803 | 23.28896 | 34047 ft | 411 kts | 330° |
| 2026-04-29 16:13 | 41.70936 | 23.25527 | 34037 ft | 411 kts | 330° |
| 2026-04-29 16:13 | 41.76072 | 23.22150 | 34030 ft | 410 kts | 330° |
| 2026-04-29 16:14 | 41.81189 | 23.18779 | 34036 ft | 410 kts | 330° |
| 2026-04-29 16:14 | 41.86281 | 23.15418 | 34042 ft | 410 kts | 329° |
| 2026-04-29 16:15 | 41.91402 | 23.12033 | 34026 ft | 410 kts | 329° |
| 2026-04-29 16:15 | 41.96516 | 23.08647 | 34012 ft | 409 kts | 329° |
| 2026-04-29 16:16 | 42.01605 | 23.05272 | 34025 ft | 408 kts | 329° |
| 2026-04-29 16:16 | 42.06686 | 23.01894 | 34036 ft | 407 kts | 329° |
| 2026-04-29 16:17 | 42.11766 | 22.98512 | 34029 ft | 407 kts | 329° |
| 2026-04-29 16:17 | 42.16829 | 22.95135 | 34021 ft | 406 kts | 329° |
| 2026-04-29 16:18 | 42.21901 | 22.91746 | 34027 ft | 406 kts | 329° |
| 2026-04-29 16:18 | 42.26956 | 22.88361 | 34025 ft | 406 kts | 329° |
| 2026-04-29 16:19 | 42.32011 | 22.84971 | 34032 ft | 406 kts | 329° |
| 2026-04-29 16:19 | 42.37050 | 22.81586 | 34046 ft | 406 kts | 329° |
| 2026-04-29 16:20 | 42.42106 | 22.78183 | 34040 ft | 405 kts | 329° |
| 2026-04-29 16:20 | 42.47149 | 22.74783 | 34045 ft | 405 kts | 328° |
| 2026-04-29 16:21 | 42.52177 | 22.71387 | 34035 ft | 403 kts | 328° |
| 2026-04-29 16:21 | 42.57196 | 22.67989 | 34054 ft | 402 kts | 328° |
| 2026-04-29 16:22 | 42.62195 | 22.64601 | 34055 ft | 402 kts | 328° |
| 2026-04-29 16:22 | 42.67195 | 22.61204 | 34060 ft | 402 kts | 328° |
| 2026-04-29 16:23 | 42.72197 | 22.57800 | 34075 ft | 402 kts | 328° |
| 2026-04-29 16:23 | 42.77205 | 22.54386 | 34058 ft | 403 kts | 328° |
| 2026-04-29 16:24 | 42.82184 | 22.50987 | 34050 ft | 403 kts | 328° |
| 2026-04-29 16:24 | 42.86941 | 22.47090 | 34070 ft | 396 kts | 319° |
| 2026-04-29 16:25 | 42.91353 | 22.42566 | 34077 ft | 397 kts | 319° |
| 2026-04-29 16:25 | 42.95770 | 22.38040 | 34096 ft | 397 kts | 319° |
| 2026-04-29 16:26 | 43.00208 | 22.33510 | 34087 ft | 398 kts | 319° |
| 2026-04-29 16:26 | 43.04653 | 22.28977 | 34065 ft | 398 kts | 319° |
| 2026-04-29 16:27 | 43.09090 | 22.24447 | 34077 ft | 398 kts | 319° |
| 2026-04-29 16:27 | 43.13524 | 22.19910 | 34081 ft | 398 kts | 319° |
| 2026-04-29 16:28 | 43.17960 | 22.15363 | 34085 ft | 399 kts | 319° |
| 2026-04-29 16:28 | 43.22408 | 22.10796 | 34097 ft | 399 kts | 319° |
| 2026-04-29 16:29 | 43.26818 | 22.06260 | 34099 ft | 397 kts | 319° |
| 2026-04-29 16:29 | 43.31225 | 22.01718 | 34107 ft | 395 kts | 319° |
| 2026-04-29 16:30 | 43.34879 | 21.97945 | 34098 ft | 394 kts | 319° |
| 2026-04-29 16:30 | 43.39263 | 21.93411 | 34105 ft | 394 kts | 319° |
| 2026-04-29 16:31 | 43.43638 | 21.88878 | 34135 ft | 393 kts | 319° |
| 2026-04-29 16:31 | 43.48004 | 21.84345 | 34108 ft | 393 kts | 318° |
| 2026-04-29 16:32 | 43.52345 | 21.79830 | 34106 ft | 392 kts | 318° |
| 2026-04-29 16:32 | 43.56723 | 21.75268 | 34105 ft | 392 kts | 318° |
| 2026-04-29 16:33 | 43.63210 | 21.68492 | 34125 ft | 392 kts | 318° |
| 2026-04-29 16:33 | 43.67562 | 21.63938 | 34122 ft | 392 kts | 318° |
| 2026-04-29 16:34 | 43.71704 | 21.59086 | 34134 ft | 389 kts | 314° |
| 2026-04-29 16:34 | 43.75694 | 21.54027 | 34131 ft | 389 kts | 313° |
| 2026-04-29 16:35 | 43.79676 | 21.48973 | 34139 ft | 388 kts | 313° |
| 2026-04-29 16:35 | 43.83657 | 21.43933 | 34149 ft | 387 kts | 314° |
| 2026-04-29 16:36 | 43.87606 | 21.38938 | 34137 ft | 387 kts | 313° |
| 2026-04-29 16:36 | 43.91582 | 21.33902 | 34153 ft | 386 kts | 313° |
| 2026-04-29 16:37 | 43.95546 | 21.28871 | 34175 ft | 386 kts | 313° |
| 2026-04-29 16:37 | 43.98839 | 21.24684 | 34171 ft | 386 kts | 313° |
| 2026-04-29 16:38 | 44.03458 | 21.18801 | 34168 ft | 385 kts | 313° |
| 2026-04-29 16:38 | 44.07407 | 21.13760 | 34167 ft | 385 kts | 313° |
| 2026-04-29 16:39 | 44.11354 | 21.08712 | 34171 ft | 385 kts | 313° |
| 2026-04-29 16:39 | 44.15301 | 21.03655 | 34173 ft | 386 kts | 313° |
| 2026-04-29 16:40 | 44.19250 | 20.98586 | 34172 ft | 386 kts | 313° |
| 2026-04-29 16:40 | 44.23196 | 20.93509 | 34183 ft | 387 kts | 313° |
| 2026-04-29 16:41 | 44.27145 | 20.88421 | 34178 ft | 387 kts | 313° |
| 2026-04-29 16:41 | 44.31096 | 20.83321 | 34178 ft | 387 kts | 313° |
| 2026-04-29 16:42 | 44.35229 | 20.78541 | 34188 ft | 390 kts | 319° |
| 2026-04-29 16:42 | 44.39655 | 20.74134 | 34185 ft | 391 kts | 319° |
| 2026-04-29 16:43 | 44.44089 | 20.69722 | 34186 ft | 391 kts | 319° |
| 2026-04-29 16:43 | 44.48506 | 20.65271 | 34188 ft | 392 kts | 319° |
| 2026-04-29 16:44 | 44.52910 | 20.60805 | 34189 ft | 391 kts | 319° |
| 2026-04-29 16:44 | 44.57311 | 20.56328 | 34186 ft | 390 kts | 319° |
| 2026-04-29 16:45 | 44.61706 | 20.51849 | 34184 ft | 389 kts | 319° |
| 2026-04-29 16:45 | 44.66086 | 20.47377 | 34187 ft | 389 kts | 319° |
| 2026-04-29 16:46 | 44.70429 | 20.42934 | 34183 ft | 388 kts | 319° |
| 2026-04-29 16:46 | 44.74783 | 20.38470 | 34193 ft | 387 kts | 319° |
| 2026-04-29 16:47 | 44.79136 | 20.34000 | 34181 ft | 386 kts | 319° |
| 2026-04-29 16:47 | 44.83406 | 20.29439 | 34186 ft | 383 kts | 315° |
| 2026-04-29 16:48 | 44.87452 | 20.24586 | 34182 ft | 381 kts | 315° |
| 2026-04-29 16:48 | 44.91464 | 20.19718 | 34184 ft | 380 kts | 315° |
| 2026-04-29 16:49 | 44.95482 | 20.14859 | 34188 ft | 380 kts | 315° |
| 2026-04-29 16:49 | 44.99470 | 20.10043 | 34186 ft | 380 kts | 315° |
| 2026-04-29 16:50 | 45.03489 | 20.05186 | 34178 ft | 380 kts | 315° |
| 2026-04-29 16:50 | 45.07514 | 20.00313 | 34183 ft | 381 kts | 315° |
| 2026-04-29 16:51 | 45.11541 | 19.95428 | 34175 ft | 382 kts | 315° |
| 2026-04-29 16:51 | 45.15578 | 19.90520 | 34184 ft | 382 kts | 315° |
| 2026-04-29 16:52 | 45.19614 | 19.85605 | 34189 ft | 383 kts | 315° |
| 2026-04-29 16:52 | 45.23665 | 19.80662 | 34206 ft | 385 kts | 315° |
| 2026-04-29 16:53 | 45.27708 | 19.75690 | 34191 ft | 384 kts | 314° |
| 2026-04-29 16:53 | 45.31724 | 19.70682 | 34187 ft | 384 kts | 314° |
| 2026-04-29 16:54 | 45.35729 | 19.65676 | 34179 ft | 383 kts | 314° |
| 2026-04-29 16:54 | 45.39698 | 19.60711 | 34185 ft | 382 kts | 314° |
| 2026-04-29 16:55 | 45.43687 | 19.55714 | 34184 ft | 381 kts | 314° |
| 2026-04-29 16:55 | 45.47663 | 19.50722 | 34183 ft | 381 kts | 314° |
| 2026-04-29 16:56 | 45.51640 | 19.45721 | 34190 ft | 381 kts | 314° |
| 2026-04-29 16:56 | 45.55606 | 19.40725 | 34185 ft | 380 kts | 314° |
| 2026-04-29 16:57 | 45.59561 | 19.35732 | 34182 ft | 379 kts | 314° |
| 2026-04-29 16:57 | 45.63483 | 19.30770 | 34188 ft | 378 kts | 314° |
| 2026-04-29 16:58 | 45.67418 | 19.25781 | 34185 ft | 378 kts | 314° |
| 2026-04-29 16:58 | 45.71354 | 19.20781 | 34185 ft | 378 kts | 314° |
| 2026-04-29 16:59 | 45.75284 | 19.15780 | 34172 ft | 377 kts | 314° |
| 2026-04-29 16:59 | 45.79175 | 19.10817 | 34192 ft | 377 kts | 313° |
| 2026-04-29 17:00 | 45.83083 | 19.05823 | 34193 ft | 376 kts | 313° |
| 2026-04-29 17:00 | 45.86989 | 19.00822 | 34191 ft | 376 kts | 313° |
| 2026-04-29 17:01 | 45.90895 | 18.95812 | 34189 ft | 377 kts | 313° |
| 2026-04-29 17:01 | 45.94562 | 18.90500 | 34195 ft | 372 kts | 305° |
| 2026-04-29 17:02 | 45.97784 | 18.84661 | 34193 ft | 373 kts | 305° |
| 2026-04-29 17:02 | 46.01010 | 18.78812 | 34193 ft | 374 kts | 305° |
| 2026-04-29 17:03 | 46.04250 | 18.72948 | 34222 ft | 374 kts | 305° |
| 2026-04-29 17:03 | 46.07499 | 18.67067 | 34213 ft | 375 kts | 305° |
| 2026-04-29 17:04 | 46.10749 | 18.61175 | 34206 ft | 376 kts | 305° |
| 2026-04-29 17:04 | 46.14006 | 18.55260 | 34202 ft | 377 kts | 305° |
| 2026-04-29 17:05 | 46.17260 | 18.49337 | 34206 ft | 377 kts | 305° |
| 2026-04-29 17:05 | 46.20519 | 18.43393 | 34202 ft | 377 kts | 305° |
| 2026-04-29 17:06 | 46.23776 | 18.37440 | 34203 ft | 378 kts | 305° |
| 2026-04-29 17:06 | 46.27010 | 18.31515 | 34209 ft | 378 kts | 305° |
| 2026-04-29 17:07 | 46.29738 | 18.26508 | 34190 ft | 378 kts | 305° |
| 2026-04-29 17:07 | 46.33513 | 18.19563 | 34203 ft | 378 kts | 305° |
| 2026-04-29 17:08 | 46.36771 | 18.13556 | 34213 ft | 378 kts | 305° |
| 2026-04-29 17:08 | 46.40017 | 18.07560 | 34209 ft | 378 kts | 305° |
| 2026-04-29 17:09 | 46.43263 | 18.01549 | 34207 ft | 378 kts | 305° |
| 2026-04-29 17:09 | 46.46508 | 17.95527 | 34202 ft | 378 kts | 305° |
| 2026-04-29 17:10 | 46.49720 | 17.89554 | 34213 ft | 377 kts | 305° |
| 2026-04-29 17:10 | 46.52952 | 17.83530 | 34216 ft | 377 kts | 305° |
| 2026-04-29 17:11 | 46.56178 | 17.77504 | 34214 ft | 377 kts | 305° |
| 2026-04-29 17:11 | 46.59396 | 17.71482 | 34208 ft | 377 kts | 305° |
| 2026-04-29 17:12 | 46.62636 | 17.65489 | 34202 ft | 378 kts | 306° |
| 2026-04-29 17:12 | 46.64859 | 17.61583 | 34229 ft | 378 kts | 306° |
| 2026-04-29 17:13 | 46.69378 | 17.53699 | 34221 ft | 379 kts | 306° |
| 2026-04-29 17:13 | 46.72750 | 17.47770 | 34218 ft | 380 kts | 306° |
| 2026-04-29 17:14 | 46.76098 | 17.41854 | 34215 ft | 381 kts | 306° |
| 2026-04-29 17:14 | 46.79471 | 17.35871 | 34211 ft | 382 kts | 306° |
| 2026-04-29 17:15 | 46.82845 | 17.29874 | 34211 ft | 383 kts | 306° |
| 2026-04-29 17:15 | 46.86226 | 17.23851 | 34211 ft | 383 kts | 306° |
| 2026-04-29 17:16 | 46.89037 | 17.18834 | 34220 ft | 384 kts | 306° |
| 2026-04-29 17:16 | 46.92422 | 17.12779 | 34217 ft | 384 kts | 306° |
| 2026-04-29 17:17 | 46.95810 | 17.06705 | 34228 ft | 386 kts | 306° |
| 2026-04-29 17:17 | 46.99216 | 17.00587 | 34210 ft | 387 kts | 306° |
| 2026-04-29 17:18 | 47.02622 | 16.94454 | 34233 ft | 388 kts | 306° |
| 2026-04-29 17:18 | 47.06034 | 16.88297 | 34239 ft | 389 kts | 306° |
| 2026-04-29 17:19 | 47.09435 | 16.82146 | 34234 ft | 391 kts | 306° |
| 2026-04-29 17:19 | 47.12865 | 16.75928 | 34236 ft | 392 kts | 306° |
| 2026-04-29 17:20 | 47.16301 | 16.69685 | 34214 ft | 393 kts | 306° |
| 2026-04-29 17:20 | 47.19738 | 16.63426 | 34230 ft | 393 kts | 306° |
| 2026-04-29 17:21 | 47.23168 | 16.57164 | 34281 ft | 393 kts | 306° |
| 2026-04-29 17:21 | 47.26592 | 16.50901 | 34256 ft | 395 kts | 306° |
| 2026-04-29 17:22 | 47.29955 | 16.44495 | 34252 ft | 395 kts | 303° |
| 2026-04-29 17:22 | 47.33119 | 16.37859 | 34247 ft | 396 kts | 303° |
| 2026-04-29 17:23 | 47.36266 | 16.31182 | 34251 ft | 397 kts | 303° |
| 2026-04-29 17:23 | 47.39429 | 16.24495 | 34241 ft | 397 kts | 303° |
| 2026-04-29 17:24 | 47.42599 | 16.17805 | 34249 ft | 397 kts | 303° |
| 2026-04-29 17:24 | 47.45769 | 16.11105 | 34250 ft | 397 kts | 303° |
| 2026-04-29 17:25 | 47.48906 | 16.04460 | 34254 ft | 397 kts | 303° |
| 2026-04-29 17:25 | 47.52060 | 15.97763 | 34235 ft | 396 kts | 303° |
| 2026-04-29 17:26 | 47.55200 | 15.91079 | 34260 ft | 395 kts | 303° |
| 2026-04-29 17:26 | 47.58335 | 15.84389 | 34252 ft | 395 kts | 303° |
| 2026-04-29 17:27 | 47.61467 | 15.77688 | 34264 ft | 396 kts | 303° |
| 2026-04-29 17:27 | 47.64600 | 15.70969 | 34256 ft | 396 kts | 303° |
| 2026-04-29 17:28 | 47.67735 | 15.64229 | 34261 ft | 397 kts | 303° |
| 2026-04-29 17:28 | 47.70875 | 15.57464 | 34267 ft | 399 kts | 303° |
| 2026-04-29 17:29 | 47.74032 | 15.50642 | 34266 ft | 402 kts | 303° |
| 2026-04-29 17:29 | 47.76668 | 15.44934 | 34266 ft | 404 kts | 303° |
| 2026-04-29 17:30 | 47.80391 | 15.36853 | 34260 ft | 406 kts | 303° |
| 2026-04-29 17:30 | 47.83546 | 15.29850 | 34261 ft | 408 kts | 302° |
| 2026-04-29 17:31 | 47.86590 | 15.22765 | 34249 ft | 409 kts | 302° |
| 2026-04-29 17:31 | 47.89636 | 15.15629 | 34265 ft | 408 kts | 302° |
| 2026-04-29 17:32 | 47.92692 | 15.08491 | 34270 ft | 409 kts | 302° |
| 2026-04-29 17:32 | 47.95753 | 15.01337 | 34252 ft | 409 kts | 302° |
| 2026-04-29 17:33 | 47.98815 | 14.94167 | 34248 ft | 409 kts | 302° |
| 2026-04-29 17:33 | 48.01877 | 14.86980 | 34259 ft | 410 kts | 302° |
| 2026-04-29 17:34 | 48.04930 | 14.79794 | 34256 ft | 410 kts | 302° |
| 2026-04-29 17:34 | 48.07970 | 14.72619 | 34253 ft | 411 kts | 302° |
| 2026-04-29 17:35 | 48.12549 | 14.61779 | 34229 ft | 411 kts | 302° |
| 2026-04-29 17:36 | 48.15594 | 14.54545 | 34256 ft | 411 kts | 302° |
| 2026-04-29 17:36 | 48.18647 | 14.47271 | 34252 ft | 413 kts | 302° |
| 2026-04-29 17:37 | 48.21708 | 14.39960 | 34247 ft | 415 kts | 302° |
| 2026-04-29 17:37 | 48.24782 | 14.32598 | 34243 ft | 417 kts | 302° |
| 2026-04-29 17:38 | 48.27863 | 14.25199 | 34225 ft | 419 kts | 303° |
| 2026-04-29 17:38 | 48.30949 | 14.17766 | 34243 ft | 420 kts | 303° |
| 2026-04-29 17:39 | 48.34045 | 14.10291 | 34240 ft | 422 kts | 303° |
| 2026-04-29 17:39 | 48.37150 | 14.02771 | 34252 ft | 423 kts | 303° |
| 2026-04-29 17:40 | 48.40252 | 13.95238 | 34249 ft | 424 kts | 303° |
| 2026-04-29 17:40 | 48.43352 | 13.87687 | 34241 ft | 423 kts | 303° |
| 2026-04-29 17:41 | 48.46422 | 13.80190 | 34255 ft | 423 kts | 303° |
| 2026-04-29 17:41 | 48.49510 | 13.72625 | 34255 ft | 424 kts | 303° |
| 2026-04-29 17:42 | 48.52600 | 13.65038 | 34259 ft | 425 kts | 303° |
| 2026-04-29 17:42 | 48.55694 | 13.57419 | 34261 ft | 426 kts | 303° |
| 2026-04-29 17:43 | 48.58771 | 13.49747 | 34254 ft | 427 kts | 301° |
| 2026-04-29 17:43 | 48.61479 | 13.41742 | 34261 ft | 429 kts | 298° |
| 2026-04-29 17:44 | 48.64087 | 13.33614 | 34261 ft | 430 kts | 298° |
| 2026-04-29 17:44 | 48.66708 | 13.25475 | 34262 ft | 430 kts | 298° |
| 2026-04-29 17:45 | 48.69331 | 13.17382 | 34264 ft | 430 kts | 298° |
| 2026-04-29 17:45 | 48.71988 | 13.09190 | 34264 ft | 431 kts | 299° |
| 2026-04-29 17:46 | 48.74628 | 13.01035 | 34261 ft | 431 kts | 299° |
| 2026-04-29 17:46 | 48.77268 | 12.92851 | 34260 ft | 432 kts | 298° |
| 2026-04-29 17:47 | 48.79888 | 12.84699 | 34261 ft | 433 kts | 298° |
| 2026-04-29 17:47 | 48.82521 | 12.76479 | 34262 ft | 434 kts | 299° |
| 2026-04-29 17:48 | 48.85159 | 12.68222 | 34271 ft | 435 kts | 299° |
| 2026-04-29 17:48 | 48.87799 | 12.59930 | 34269 ft | 436 kts | 299° |
| 2026-04-29 17:49 | 48.90422 | 12.51663 | 34267 ft | 437 kts | 299° |
| 2026-04-29 17:49 | 48.93060 | 12.43318 | 34269 ft | 438 kts | 298° |
| 2026-04-29 17:50 | 48.95696 | 12.34952 | 34259 ft | 439 kts | 299° |
| 2026-04-29 17:50 | 48.98331 | 12.26562 | 34273 ft | 439 kts | 299° |
| 2026-04-29 17:51 | 49.00942 | 12.18220 | 34277 ft | 440 kts | 298° |
| 2026-04-29 17:51 | 49.03571 | 12.09794 | 34273 ft | 440 kts | 298° |
| 2026-04-29 17:52 | 49.06196 | 12.01351 | 34272 ft | 441 kts | 298° |
| 2026-04-29 17:52 | 49.08817 | 11.92893 | 34267 ft | 441 kts | 299° |
| 2026-04-29 17:53 | 49.11436 | 11.84413 | 34267 ft | 441 kts | 298° |
| 2026-04-29 17:53 | 49.14031 | 11.75980 | 34266 ft | 442 kts | 298° |
| 2026-04-29 17:54 | 49.16639 | 11.67457 | 34266 ft | 443 kts | 299° |
| 2026-04-29 17:54 | 49.19257 | 11.58902 | 34275 ft | 444 kts | 299° |
| 2026-04-29 17:55 | 49.21858 | 11.50371 | 34271 ft | 445 kts | 299° |
| 2026-04-29 17:55 | 49.24470 | 11.41767 | 34277 ft | 447 kts | 299° |
| 2026-04-29 17:56 | 49.27084 | 11.33123 | 34275 ft | 448 kts | 299° |
| 2026-04-29 17:56 | 49.29699 | 11.24444 | 34283 ft | 449 kts | 299° |
| 2026-04-29 17:57 | 49.32296 | 11.15795 | 34258 ft | 450 kts | 299° |
| 2026-04-29 17:57 | 49.34922 | 11.07020 | 34281 ft | 450 kts | 299° |
| 2026-04-29 17:58 | 49.37529 | 10.98278 | 34291 ft | 451 kts | 299° |
| 2026-04-29 17:58 | 49.40161 | 10.89591 | 34295 ft | 450 kts | 301° |
| 2026-04-29 17:59 | 49.42968 | 10.80996 | 34267 ft | 450 kts | 301° |
| 2026-04-29 17:59 | 49.45797 | 10.72402 | 34261 ft | 450 kts | 301° |
| 2026-04-29 18:00 | 49.48127 | 10.65242 | 34266 ft | 450 kts | 302° |
| 2026-04-29 18:00 | 49.51366 | 10.55185 | 34266 ft | 451 kts | 302° |
| 2026-04-29 18:01 | 49.53692 | 10.47935 | 34259 ft | 451 kts | 302° |
| 2026-04-29 18:01 | 49.56464 | 10.39262 | 34274 ft | 451 kts | 302° |
| 2026-04-29 18:02 | 49.59227 | 10.30586 | 34267 ft | 451 kts | 302° |
| 2026-04-29 18:02 | 49.61973 | 10.21936 | 34268 ft | 451 kts | 301° |
| 2026-04-29 18:03 | 49.64729 | 10.13223 | 34276 ft | 452 kts | 301° |
| 2026-04-29 18:03 | 49.67482 | 10.04489 | 34263 ft | 453 kts | 301° |
| 2026-04-29 18:04 | 49.70234 | 9.95726 | 34234 ft | 453 kts | 301° |
| 2026-04-29 18:04 | 49.72979 | 9.86955 | 34275 ft | 454 kts | 301° |
| 2026-04-29 18:05 | 49.75721 | 9.78161 | 34274 ft | 454 kts | 301° |
| 2026-04-29 18:05 | 49.78460 | 9.69350 | 34285 ft | 455 kts | 301° |
| 2026-04-29 18:06 | 49.81196 | 9.60511 | 34270 ft | 455 kts | 301° |
| 2026-04-29 18:06 | 49.83912 | 9.51708 | 34254 ft | 455 kts | 301° |
| 2026-04-29 18:07 | 49.86636 | 9.42847 | 34278 ft | 456 kts | 301° |
| 2026-04-29 18:07 | 49.89356 | 9.33969 | 34276 ft | 457 kts | 301° |
| 2026-04-29 18:08 | 49.92080 | 9.25043 | 34279 ft | 457 kts | 301° |
| 2026-04-29 18:08 | 49.94798 | 9.16106 | 34278 ft | 458 kts | 301° |
| 2026-04-29 18:09 | 49.97506 | 9.07164 | 34271 ft | 458 kts | 301° |
| 2026-04-29 18:09 | 50.00215 | 8.98192 | 34275 ft | 458 kts | 301° |
| 2026-04-29 18:10 | 50.02893 | 8.89158 | 34268 ft | 460 kts | 298° |
| 2026-04-29 18:10 | 50.05297 | 8.79906 | 34268 ft | 462 kts | 297° |
| 2026-04-29 18:11 | 50.07629 | 8.70575 | 34269 ft | 463 kts | 297° |
| 2026-04-29 18:11 | 50.09985 | 8.61252 | 34272 ft | 463 kts | 297° |
| 2026-04-29 18:12 | 50.12363 | 8.51922 | 34265 ft | 463 kts | 297° |
| 2026-04-29 18:12 | 50.14726 | 8.42659 | 34326 ft | 463 kts | 297° |
| 2026-04-29 18:13 | 50.17097 | 8.33332 | 34320 ft | 463 kts | 297° |
| 2026-04-29 18:13 | 50.19466 | 8.23965 | 34304 ft | 463 kts | 297° |
| 2026-04-29 18:14 | 50.21825 | 8.14596 | 34302 ft | 463 kts | 297° |
| 2026-04-29 18:14 | 50.24175 | 8.05223 | 34312 ft | 464 kts | 297° |
| 2026-04-29 18:15 | 50.26508 | 7.95880 | 34305 ft | 465 kts | 296° |
| 2026-04-29 18:15 | 50.28851 | 7.86458 | 34293 ft | 465 kts | 296° |
| 2026-04-29 18:16 | 50.31188 | 7.77016 | 34289 ft | 465 kts | 296° |
| 2026-04-29 18:16 | 50.33521 | 7.67551 | 34294 ft | 466 kts | 296° |
| 2026-04-29 18:17 | 50.35850 | 7.58065 | 34292 ft | 467 kts | 296° |
| 2026-04-29 18:17 | 50.38178 | 7.48541 | 34293 ft | 467 kts | 296° |
| 2026-04-29 18:18 | 50.40465 | 7.39141 | 34261 ft | 468 kts | 295° |
| 2026-04-29 18:18 | 50.42683 | 7.29988 | 34274 ft | 467 kts | 295° |
| 2026-04-29 18:19 | 50.44984 | 7.20456 | 34288 ft | 468 kts | 295° |
| 2026-04-29 18:19 | 50.47284 | 7.10883 | 34290 ft | 469 kts | 295° |
| 2026-04-29 18:20 | 50.49577 | 7.01300 | 34283 ft | 469 kts | 295° |
| 2026-04-29 18:20 | 50.51864 | 6.91694 | 34272 ft | 469 kts | 295° |
| 2026-04-29 18:21 | 50.54141 | 6.82086 | 34277 ft | 469 kts | 295° |
| 2026-04-29 18:21 | 50.56418 | 6.72443 | 34273 ft | 470 kts | 295° |
| 2026-04-29 18:22 | 50.58687 | 6.62785 | 34257 ft | 471 kts | 295° |
| 2026-04-29 18:22 | 50.60937 | 6.53169 | 34268 ft | 471 kts | 295° |
| 2026-04-29 18:23 | 50.63194 | 6.43479 | 34264 ft | 472 kts | 294° |
| 2026-04-29 18:23 | 50.65448 | 6.33758 | 34248 ft | 472 kts | 294° |
| 2026-04-29 18:24 | 50.67697 | 6.24014 | 34252 ft | 473 kts | 294° |
| 2026-04-29 18:24 | 50.69936 | 6.14267 | 34256 ft | 473 kts | 294° |
| 2026-04-29 18:25 | 50.72171 | 6.04489 | 34241 ft | 472 kts | 294° |
| 2026-04-29 18:25 | 50.74393 | 5.94725 | 34261 ft | 472 kts | 294° |
| 2026-04-29 18:26 | 50.76605 | 5.84965 | 34269 ft | 473 kts | 294° |
| 2026-04-29 18:26 | 50.78802 | 5.75225 | 34266 ft | 473 kts | 294° |
| 2026-04-29 18:27 | 50.81006 | 5.65405 | 34268 ft | 473 kts | 293° |
| 2026-04-29 18:27 | 50.83200 | 5.55584 | 34261 ft | 473 kts | 293° |
| 2026-04-29 18:28 | 50.85383 | 5.45769 | 34266 ft | 473 kts | 293° |
| 2026-04-29 18:28 | 50.87564 | 5.35915 | 34266 ft | 474 kts | 292° |
| 2026-04-29 18:29 | 50.89736 | 5.26058 | 34265 ft | 474 kts | 292° |
| 2026-04-29 18:29 | 50.91890 | 5.16233 | 34246 ft | 475 kts | 292° |
| 2026-04-29 18:30 | 50.94021 | 5.06465 | 34257 ft | 475 kts | 292° |
| 2026-04-29 18:30 | 50.96176 | 4.96542 | 34263 ft | 475 kts | 292° |
| 2026-04-29 18:31 | 50.98318 | 4.86633 | 34265 ft | 475 kts | 292° |
| 2026-04-29 18:31 | 51.00457 | 4.76686 | 34269 ft | 476 kts | 292° |
| 2026-04-29 18:32 | 51.02587 | 4.66731 | 34257 ft | 476 kts | 291° |
| 2026-04-29 18:32 | 51.05764 | 4.51797 | 34262 ft | 476 kts | 291° |
| 2026-04-29 18:33 | 51.07877 | 4.41803 | 34262 ft | 476 kts | 291° |
| 2026-04-29 18:33 | 51.09966 | 4.31872 | 34265 ft | 476 kts | 291° |
| 2026-04-29 18:34 | 51.11719 | 4.23499 | 34257 ft | 476 kts | 291° |
| 2026-04-29 18:34 | 51.14146 | 4.11850 | 34255 ft | 477 kts | 291° |
| 2026-04-29 18:35 | 51.16225 | 4.01820 | 34247 ft | 476 kts | 291° |
| 2026-04-29 18:35 | 51.18293 | 3.91792 | 34243 ft | 476 kts | 291° |
| 2026-04-29 18:36 | 51.20351 | 3.81757 | 34241 ft | 476 kts | 290° |
| 2026-04-29 18:36 | 51.22405 | 3.71702 | 34243 ft | 476 kts | 290° |
| 2026-04-29 18:37 | 51.24301 | 3.61581 | 34238 ft | 477 kts | 284° |
| 2026-04-29 18:37 | 51.25597 | 3.51197 | 34234 ft | 477 kts | 282° |
| 2026-04-29 18:38 | 51.26905 | 3.40869 | 34240 ft | 476 kts | 283° |
| 2026-04-29 18:38 | 51.28259 | 3.30510 | 34228 ft | 476 kts | 283° |
| 2026-04-29 18:39 | 51.29584 | 3.20165 | 34235 ft | 475 kts | 282° |
| 2026-04-29 18:39 | 51.30899 | 3.09803 | 34240 ft | 475 kts | 282° |
| 2026-04-29 18:40 | 51.32206 | 2.99445 | 34241 ft | 475 kts | 282° |
| 2026-04-29 18:40 | 51.33504 | 2.89087 | 34245 ft | 475 kts | 282° |
| 2026-04-29 18:41 | 51.36075 | 2.68362 | 34242 ft | 475 kts | 282° |
| 2026-04-29 18:42 | 51.37343 | 2.58046 | 34239 ft | 475 kts | 282° |
| 2026-04-29 18:42 | 51.38610 | 2.47673 | 34237 ft | 475 kts | 282° |
| 2026-04-29 18:43 | 51.39867 | 2.37300 | 34233 ft | 475 kts | 281° |
| 2026-04-29 18:43 | 51.41117 | 2.26906 | 34237 ft | 475 kts | 281° |
| 2026-04-29 18:44 | 51.42378 | 2.16528 | 34241 ft | 475 kts | 281° |
| 2026-04-29 18:44 | 51.43648 | 2.06140 | 34245 ft | 474 kts | 281° |
| 2026-04-29 18:45 | 51.44689 | 1.97510 | 34248 ft | 474 kts | 281° |
| 2026-04-29 18:45 | 51.45911 | 1.87123 | 34242 ft | 475 kts | 280° |
| 2026-04-29 18:46 | 51.47116 | 1.76718 | 34250 ft | 474 kts | 280° |
| 2026-04-29 18:46 | 51.48314 | 1.66300 | 34247 ft | 475 kts | 280° |
| 2026-04-29 18:47 | 51.49505 | 1.55873 | 34253 ft | 475 kts | 280° |
| 2026-04-29 18:47 | 51.50687 | 1.45422 | 34258 ft | 475 kts | 279° |
| 2026-04-29 18:48 | 51.51854 | 1.35025 | 34250 ft | 476 kts | 279° |
| 2026-04-29 18:48 | 51.53019 | 1.24561 | 34262 ft | 476 kts | 279° |
| 2026-04-29 18:49 | 51.54175 | 1.14099 | 34251 ft | 470 kts | 279° |
| 2026-04-29 18:49 | 51.54734 | 1.09008 | 34239 ft | 454 kts | 279° |
| 2026-04-29 18:49 | 51.55271 | 1.04094 | 34238 ft | 439 kts | 279° |
| 2026-04-29 18:50 | 51.56305 | 0.94566 | 34245 ft | 423 kts | 278° |
| 2026-04-29 18:50 | 51.56800 | 0.89977 | 34246 ft | 410 kts | 278° |
| 2026-04-29 18:50 | 51.57296 | 0.85524 | 34232 ft | 398 kts | 282° |
| 2026-04-29 18:51 | 51.58796 | 0.77064 | 34286 ft | 397 kts | 287° |
| 2026-04-29 18:51 | 51.60485 | 0.68468 | 34287 ft | 412 kts | 287° |
| 2026-04-29 18:52 | 51.62179 | 0.59627 | 34263 ft | 413 kts | 286° |
| 2026-04-29 18:52 | 51.63835 | 0.50765 | 34264 ft | 412 kts | 285° |
| 2026-04-29 18:53 | 51.65448 | 0.42035 | 34256 ft | 404 kts | 285° |
| 2026-04-29 18:53 | 51.67026 | 0.33438 | 34283 ft | 400 kts | 285° |
| 2026-04-29 18:54 | 51.68606 | 0.24788 | 34291 ft | 404 kts | 284° |
| 2026-04-29 18:54 | 51.70193 | 0.16061 | 34287 ft | 407 kts | 284° |
| 2026-04-29 18:55 | 51.71784 | 0.07278 | 34283 ft | 409 kts | 284° |
| 2026-04-29 18:55 | 51.73370 | -0.01522 | 34351 ft | 408 kts | 284° |
| 2026-04-29 18:56 | 51.74930 | -0.10215 | 34346 ft | 398 kts | 284° |
| 2026-04-29 18:56 | 51.76439 | -0.18667 | 33865 ft | 391 kts | 284° |
| 2026-04-29 18:57 | 51.77199 | -0.22944 | 32932 ft | 404 kts | 284° |
| 2026-04-29 18:57 | 51.77988 | -0.27397 | 32035 ft | 418 kts | 284° |
| 2026-04-29 18:57 | 51.78789 | -0.31916 | 31576 ft | 418 kts | 285° |
| 2026-04-29 18:57 | 51.79585 | -0.36412 | 31178 ft | 413 kts | 285° |
| 2026-04-29 18:58 | 51.80746 | -0.40628 | 30840 ft | 410 kts | 305° |
| 2026-04-29 18:58 | 51.82654 | -0.44022 | 30400 ft | 409 kts | 324° |
| 2026-04-29 18:58 | 51.85034 | -0.46510 | 29973 ft | 406 kts | 331° |
| 2026-04-29 18:58 | 51.87476 | -0.48778 | 29576 ft | 403 kts | 332° |
| 2026-04-29 18:59 | 51.89897 | -0.51039 | 29167 ft | 401 kts | 331° |
| 2026-04-29 18:59 | 51.92264 | -0.53307 | 28710 ft | 399 kts | 330° |
| 2026-04-29 18:59 | 51.94666 | -0.55643 | 28302 ft | 408 kts | 330° |
| 2026-04-29 18:59 | 51.97134 | -0.58057 | 28318 ft | 420 kts | 330° |
| 2026-04-29 19:00 | 51.99673 | -0.60541 | 28286 ft | 432 kts | 330° |
| 2026-04-29 19:00 | 52.02282 | -0.63096 | 28299 ft | 443 kts | 330° |
| 2026-04-29 19:00 | 52.07649 | -0.68364 | 28288 ft | 454 kts | 330° |
| 2026-04-29 19:01 | 52.13037 | -0.73669 | 28278 ft | 451 kts | 330° |
| 2026-04-29 19:01 | 52.18385 | -0.78946 | 28278 ft | 449 kts | 330° |
| 2026-04-29 19:02 | 52.22718 | -0.83577 | 28269 ft | 449 kts | 316° |
| 2026-04-29 19:02 | 52.25145 | -0.89053 | 28281 ft | 446 kts | 293° |
| 2026-04-29 19:02 | 52.26065 | -0.93780 | 28337 ft | 443 kts | 281° |
| 2026-04-29 19:03 | 52.27347 | -1.03637 | 28330 ft | 444 kts | 280° |
| 2026-04-29 19:03 | 52.28614 | -1.13506 | 28317 ft | 444 kts | 281° |
| 2026-04-29 19:04 | 52.29942 | -1.23369 | 28336 ft | 445 kts | 281° |
| 2026-04-29 19:04 | 52.31277 | -1.33246 | 28335 ft | 444 kts | 281° |
| 2026-04-29 19:05 | 52.31932 | -1.38127 | 28064 ft | 436 kts | 281° |
| 2026-04-29 19:05 | 52.32577 | -1.42963 | 27490 ft | 436 kts | 281° |
| 2026-04-29 19:05 | 52.33221 | -1.47819 | 26836 ft | 437 kts | 280° |
| 2026-04-29 19:05 | 52.33864 | -1.52673 | 26332 ft | 435 kts | 280° |
| 2026-04-29 19:06 | 52.34500 | -1.57479 | 25877 ft | 430 kts | 280° |
| 2026-04-29 19:06 | 52.35127 | -1.62235 | 25437 ft | 427 kts | 280° |
| 2026-04-29 19:06 | 52.35660 | -1.71746 | 24478 ft | 417 kts | 263° |
| 2026-04-29 19:07 | 52.35435 | -1.76456 | 24034 ft | 414 kts | 262° |
| 2026-04-29 19:07 | 52.35271 | -1.79578 | 23566 ft | 415 kts | 262° |
| 2026-04-29 19:07 | 52.34962 | -1.85897 | 22603 ft | 418 kts | 262° |
| 2026-04-29 19:07 | 52.34757 | -1.90650 | 21892 ft | 420 kts | 263° |
| 2026-04-29 19:08 | 52.34700 | -1.95387 | 21190 ft | 425 kts | 274° |
| 2026-04-29 19:08 | 52.35446 | -2.00087 | 20522 ft | 430 kts | 292° |
| 2026-04-29 19:08 | 52.37040 | -2.04239 | 19834 ft | 433 kts | 311° |
| 2026-04-29 19:08 | 52.39180 | -2.07744 | 19021 ft | 437 kts | 320° |
| 2026-04-29 19:09 | 52.41629 | -2.10721 | 18150 ft | 440 kts | 328° |
| 2026-04-29 19:09 | 52.44204 | -2.13454 | 17231 ft | 442 kts | 329° |
| 2026-04-29 19:09 | 52.46819 | -2.16136 | 16359 ft | 444 kts | 330° |
| 2026-04-29 19:09 | 52.49451 | -2.18812 | 15491 ft | 445 kts | 330° |
| 2026-04-29 19:10 | 52.52087 | -2.21475 | 14621 ft | 445 kts | 330° |
| 2026-04-29 19:10 | 52.54696 | -2.24101 | 14153 ft | 430 kts | 330° |
| 2026-04-29 19:10 | 52.57181 | -2.26602 | 13703 ft | 411 kts | 330° |
| 2026-04-29 19:10 | 52.59588 | -2.29029 | 12953 ft | 403 kts | 330° |
| 2026-04-29 19:11 | 52.61955 | -2.31420 | 12244 ft | 395 kts | 330° |
| 2026-04-29 19:11 | 52.64271 | -2.33767 | 11548 ft | 387 kts | 330° |
| 2026-04-29 19:11 | 52.66511 | -2.36047 | 10881 ft | 379 kts | 330° |
| 2026-04-29 19:11 | 52.68757 | -2.38231 | 10203 ft | 370 kts | 337° |
| 2026-04-29 19:12 | 52.71182 | -2.39317 | 9484 ft | 356 kts | 0° |
| 2026-04-29 19:12 | 52.73559 | -2.38889 | 8866 ft | 337 kts | 22° |
| 2026-04-29 19:12 | 52.75555 | -2.37103 | 8243 ft | 318 kts | 46° |
| 2026-04-29 19:12 | 52.76519 | -2.35298 | 7933 ft | 303 kts | 63° |
| 2026-04-29 19:13 | 52.77477 | -2.31208 | 7493 ft | 279 kts | 78° |
| 2026-04-29 19:13 | 52.77961 | -2.28168 | 7148 ft | 269 kts | 79° |
| 2026-04-29 19:13 | 52.78417 | -2.25217 | 6808 ft | 260 kts | 79° |
| 2026-04-29 19:13 | 52.78857 | -2.22358 | 6454 ft | 253 kts | 80° |
| 2026-04-29 19:14 | 52.79288 | -2.19574 | 6104 ft | 246 kts | 80° |
| 2026-04-29 19:14 | 52.79710 | -2.16874 | 5770 ft | 239 kts | 80° |
| 2026-04-29 19:14 | 52.80116 | -2.14303 | 5478 ft | 228 kts | 80° |
| 2026-04-29 19:14 | 52.80275 | -2.11787 | 5124 ft | 210 kts | 103° |
| 2026-04-29 19:15 | 52.79625 | -2.09779 | 4789 ft | 200 kts | 133° |
| 2026-04-29 19:15 | 52.78550 | -2.08426 | 4609 ft | 187 kts | 140° |
| 2026-04-29 19:15 | 52.77432 | -2.07404 | 4467 ft | 182 kts | 149° |
| 2026-04-29 19:15 | 52.76293 | -2.06602 | 4324 ft | 174 kts | 150° |
| 2026-04-29 19:16 | 52.75201 | -2.05868 | 4180 ft | 166 kts | 150° |
| 2026-04-29 19:16 | 52.74125 | -2.05156 | 4070 ft | 168 kts | 150° |
| 2026-04-29 19:16 | 52.73040 | -2.04441 | 4032 ft | 168 kts | 150° |
| 2026-04-29 19:16 | 52.71966 | -2.03741 | 4019 ft | 163 kts | 150° |
| 2026-04-29 19:17 | 52.70940 | -2.03059 | 4005 ft | 154 kts | 145° |
| 2026-04-29 19:17 | 52.70051 | -2.02140 | 4020 ft | 151 kts | 140° |
| 2026-04-29 19:17 | 52.69166 | -2.01199 | 4014 ft | 151 kts | 140° |
| 2026-04-29 19:17 | 52.68290 | -2.00257 | 4006 ft | 150 kts | 139° |
| 2026-04-29 19:18 | 52.67424 | -1.99311 | 4008 ft | 148 kts | 139° |
| 2026-04-29 19:18 | 52.66857 | -1.98687 | 4016 ft | 148 kts | 139° |
| 2026-04-29 19:18 | 52.65727 | -1.97436 | 4023 ft | 148 kts | 139° |
| 2026-04-29 19:18 | 52.64873 | -1.96488 | 4017 ft | 148 kts | 139° |
| 2026-04-29 19:19 | 52.64012 | -1.95532 | 4028 ft | 150 kts | 139° |
| 2026-04-29 19:19 | 52.63138 | -1.94559 | 4022 ft | 153 kts | 139° |
| 2026-04-29 19:19 | 52.62252 | -1.93574 | 4022 ft | 154 kts | 139° |
| 2026-04-29 19:19 | 52.61358 | -1.92579 | 3902 ft | 158 kts | 138° |
| 2026-04-29 19:20 | 52.60451 | -1.91571 | 3713 ft | 157 kts | 138° |
| 2026-04-29 19:20 | 52.59554 | -1.90574 | 3516 ft | 154 kts | 137° |
| 2026-04-29 19:20 | 52.58673 | -1.89592 | 3306 ft | 151 kts | 137° |
| 2026-04-29 19:20 | 52.57819 | -1.88645 | 3109 ft | 147 kts | 137° |
| 2026-04-29 19:21 | 52.56984 | -1.87717 | 2913 ft | 146 kts | 137° |
| 2026-04-29 19:21 | 52.56139 | -1.86774 | 2697 ft | 147 kts | 137° |
| 2026-04-29 19:21 | 52.55295 | -1.85836 | 2490 ft | 146 kts | 137° |
| 2026-04-29 19:21 | 52.54452 | -1.84900 | 2282 ft | 146 kts | 136° |
| 2026-04-29 19:22 | 52.53609 | -1.83963 | 2088 ft | 147 kts | 136° |
| 2026-04-29 19:22 | 52.52744 | -1.82996 | 1899 ft | 153 kts | 137° |
| 2026-04-29 19:22 | 52.51845 | -1.81995 | 1668 ft | 155 kts | 137° |
| 2026-04-29 19:22 | 52.50975 | -1.81030 | 1474 ft | 145 kts | 137° |
| 2026-04-29 19:23 | 52.50157 | -1.80118 | 1284 ft | 143 kts | 136° |
| 2026-04-29 19:23 | 52.49353 | -1.79222 | 1070 ft | 137 kts | 138° |
| 2026-04-29 19:23 | 52.48537 | -1.78325 | 953 ft | 142 kts | 140° |
| 2026-04-29 19:23 | 52.47717 | -1.77448 | 732 ft | 140 kts | 140° |
| 2026-04-29 19:24 | 52.46917 | -1.76494 | 468 ft | 145 kts | 142° |
| 2026-04-29 19:24 | 52.46077 | -1.75579 | 315 ft | 142 kts | 138° |
| 2026-04-29 19:24 | 52.45403 | -1.74811 | 322 ft | 90 kts | 147° |
| 2026-04-29 19:24 | 52.45061 | -1.74440 | 328 ft | 28 kts | 146° |
| 2026-04-29 19:25 | 52.45024 | -1.74399 | 326 ft | 3 kts | 147° |
| 2026-04-29 19:25 | 52.44962 | -1.74328 | 324 ft | 14 kts | 137° |
| 2026-04-29 19:25 | 52.44953 | -1.74184 | 324 ft | 12 kts | 75° |
| 2026-04-29 19:25 | 52.44978 | -1.74047 | 324 ft | 14 kts | 69° |
| 2026-04-29 19:26 | 52.45002 | -1.73909 | 323 ft | 12 kts | 87° |
| 2026-04-29 19:26 | 52.44961 | -1.73805 | 322 ft | 11 kts | 145° |
| 2026-04-29 19:26 | 52.44897 | -1.73732 | 322 ft | 11 kts | 148° |
| 2026-04-29 19:26 | 52.44870 | -1.73640 | 322 ft | 10 kts | 78° |
| 2026-04-29 19:27 | 52.44895 | -1.73541 | 322 ft | 9 kts | 70° |
| 2026-04-29 19:27 | 52.44925 | -1.73449 | 322 ft | 9 kts | 56° |
| 2026-04-29 19:27 | 52.44960 | -1.73365 | 321 ft | 9 kts | 56° |
| 2026-04-29 19:27 | 52.44994 | -1.73283 | 322 ft | 9 kts | 56° |
| 2026-04-29 19:28 | 52.45016 | -1.73237 | 322 ft | 1 kts | 29° |
| 2026-04-29 19:28 | 52.45026 | -1.73238 | 322 ft | 3 kts | 354° |
| 2026-04-29 19:28 | 52.45050 | -1.73256 | 322 ft | 4 kts | 327° |
| 2026-04-29 19:28 | 52.45060 | -1.73266 | 321 ft | 0 kts | 326° |
| 2026-04-29 19:29 | 52.45060 | -1.73267 | 321 ft | 0 kts | 326° |